Time;durP1;ratioP1;P1;durP2;ratioP2;P2;SDS_P1;SDS_P2;PMS_P1;PMS_P2;Temp;Humidity;BMP_temperature;BMP_pressure;BME280_temperature;BME280_humidity;BME280_pressure;Samples;Min_cycle;Max_cycle;Signal;HPM_P1;HPM_P2
2022/10/20 00:00:49;;;;;;;10.25;9.75;;;;;;;10.15;100.00;101076.44;5083817;28;20027;-63
2022/10/20 00:03:14;;;;;;;9.52;9.10;;;;;;;10.14;100.00;101085.38;5084487;28;20055;-62
2022/10/20 00:05:40;;;;;;;10.45;9.95;;;;;;;10.13;100.00;101081.03;5080564;28;20028;-63
2022/10/20 00:08:05;;;;;;;10.18;9.68;;;;;;;10.09;100.00;101081.53;5082271;28;20047;-62
2022/10/20 00:10:30;;;;;;;10.40;9.90;;;;;;;9.97;100.00;101084.44;5084491;28;20107;-64
2022/10/20 00:12:56;;;;;;;10.30;9.80;;;;;;;9.86;100.00;101074.13;5082884;28;20069;-63
2022/10/20 00:15:21;;;;;;;10.38;9.88;;;;;;;9.90;100.00;101090.53;5078789;28;20028;-62
2022/10/20 00:17:47;;;;;;;9.70;9.20;;;;;;;9.76;100.00;101083.16;5084399;28;20093;-63
2022/10/20 00:20:12;;;;;;;9.48;9.05;;;;;;;9.80;100.00;101087.16;5084922;28;20486;-62
2022/10/20 00:22:38;;;;;;;10.45;9.95;;;;;;;9.79;100.00;101085.50;5081726;28;20416;-63
2022/10/20 00:25:03;;;;;;;10.30;9.80;;;;;;;9.63;100.00;101071.16;5086262;28;20036;-63
2022/10/20 00:27:29;;;;;;;10.45;9.95;;;;;;;9.61;100.00;101078.41;5077078;28;20024;-62
2022/10/20 00:29:54;;;;;;;10.15;9.65;;;;;;;9.61;100.00;101083.72;5084042;28;20020;-63
2022/10/20 00:32:20;;;;;;;9.90;9.40;;;;;;;9.50;100.00;101083.16;5078902;28;20032;-63
2022/10/20 00:34:45;;;;;;;10.88;10.27;;;;;;;9.44;100.00;101074.00;5087055;28;20359;-64
2022/10/20 00:37:11;;;;;;;9.70;9.20;;;;;;;9.42;100.00;101075.97;5085087;28;20024;-63
2022/10/20 00:39:36;;;;;;;10.10;9.60;;;;;;;9.39;100.00;101081.56;5085199;28;20024;-63
2022/10/20 00:42:03;;;;;;;10.15;9.65;;;;;;;9.40;100.00;101078.78;5088211;28;20023;-63
2022/10/20 00:44:47;;;;;;;9.98;9.48;;;;;;;9.39;100.00;101082.38;5081872;28;20017;-63
2022/10/20 00:47:19;;;;;;;9.80;9.30;;;;;;;9.25;100.00;101082.09;5079180;28;20031;-63
2022/10/20 00:49:47;;;;;;;9.98;9.48;;;;;;;9.19;100.00;101090.69;5080728;28;20052;-64
2022/10/20 00:52:14;;;;;;;9.57;9.07;;;;;;;9.16;100.00;101083.03;5081134;28;20020;-64
2022/10/20 00:54:40;;;;;;;10.38;9.88;;;;;;;9.09;100.00;101088.91;5086091;28;20104;-64
2022/10/20 00:57:05;;;;;;;10.45;9.95;;;;;;;9.10;100.00;101098.50;5082709;28;20107;-64
2022/10/20 00:59:34;;;;;;;10.50;10.00;;;;;;;9.02;100.00;101108.19;5093306;28;20039;-64
2022/10/20 01:02:01;;;;;;;9.93;9.43;;;;;;;9.00;100.00;101107.53;5087727;28;20476;-64
2022/10/20 01:04:29;;;;;;;9.90;9.40;;;;;;;9.03;100.00;101112.50;5090637;28;20085;-64
2022/10/20 01:06:56;;;;;;;10.30;9.80;;;;;;;8.98;100.00;101105.03;5089560;28;20077;-64
2022/10/20 01:09:22;;;;;;;10.57;10.02;;;;;;;8.97;100.00;101116.59;5090009;28;20023;-64
2022/10/20 01:11:57;;;;;;;9.70;9.20;;;;;;;8.96;100.00;101111.44;5094502;28;20024;-63
2022/10/20 01:14:42;;;;;;;9.93;9.43;;;;;;;8.94;100.00;101116.06;5083967;28;20025;-63
2022/10/20 01:17:07;;;;;;;9.98;9.48;;;;;;;8.83;100.00;101123.22;5091581;28;20487;-63
2022/10/20 01:19:51;;;;;;;9.80;9.30;;;;;;;8.88;100.00;101133.34;5084307;28;20035;-62
2022/10/20 01:22:39;;;;;;;9.57;9.10;;;;;;;8.86;100.00;101138.78;5087548;28;20024;-63
2022/10/20 01:25:22;;;;;;;9.95;9.45;;;;;;;8.78;100.00;101133.41;5093378;28;20497;-64
2022/10/20 01:27:55;;;;;;;10.50;9.98;;;;;;;8.84;100.00;101145.22;5087005;28;20052;-63
2022/10/20 01:30:22;;;;;;;10.10;9.60;;;;;;;8.85;100.00;101160.94;5091705;28;20448;-63
2022/10/20 01:33:12;;;;;;;9.93;9.43;;;;;;;8.84;100.00;101153.16;5088393;28;20043;-62
2022/10/20 01:35:46;;;;;;;9.82;9.32;;;;;;;8.79;100.00;101160.69;5090806;28;20024;-63
2022/10/20 01:38:19;;;;;;;9.45;9.00;;;;;;;8.80;100.00;101155.25;5091488;28;20024;-63
2022/10/20 01:40:58;;;;;;;9.88;9.38;;;;;;;8.80;100.00;101162.38;5087317;28;20028;-62
2022/10/20 01:43:27;;;;;;;9.70;9.20;;;;;;;8.78;100.00;101165.16;5089714;28;20025;-63
2022/10/20 01:45:55;;;;;;;9.85;9.35;;;;;;;8.64;100.00;101167.47;5091349;28;20027;-62
2022/10/20 01:48:27;;;;;;;9.50;9.00;;;;;;;8.66;100.00;101170.78;5092074;28;20433;-64
2022/10/20 01:50:52;;;;;;;9.80;9.30;;;;;;;8.59;100.00;101170.53;5084613;28;20048;-63
2022/10/20 01:53:19;;;;;;;10.70;10.10;;;;;;;8.64;100.00;101172.75;5086354;28;20357;-63
2022/10/20 01:55:44;;;;;;;9.80;9.30;;;;;;;8.61;100.00;101173.88;5090111;28;20028;-62
2022/10/20 01:58:28;;;;;;;9.68;9.18;;;;;;;8.56;100.00;101189.34;5090859;28;20046;-63
2022/10/20 02:00:57;;;;;;;9.63;9.13;;;;;;;8.53;100.00;101185.19;5092963;28;20570;-63
2022/10/20 02:03:37;;;;;;;9.75;9.25;;;;;;;8.62;100.00;101187.94;5082991;28;20490;-62
2022/10/20 02:06:29;;;;;;;9.90;9.40;;;;;;;8.53;100.00;101198.41;5089756;28;20108;-63
2022/10/20 02:09:00;;;;;;;9.57;9.07;;;;;;;8.47;100.00;101201.63;5084977;28;20339;-63
2022/10/20 02:11:38;;;;;;;10.05;9.55;;;;;;;8.50;100.00;101205.78;5084342;28;20031;-63
2022/10/20 02:14:06;;;;;;;10.00;9.50;;;;;;;8.42;100.00;101206.50;5083168;28;20032;-63
2022/10/20 02:16:35;;;;;;;10.13;9.63;;;;;;;8.41;100.00;101212.78;5082352;28;20107;-64
2022/10/20 02:19:02;;;;;;;9.77;9.27;;;;;;;8.40;100.00;101213.75;5085801;28;20077;-63
2022/10/20 02:21:28;;;;;;;9.98;9.48;;;;;;;8.44;100.00;101224.88;5083068;28;20107;-64
2022/10/20 02:23:55;;;;;;;9.73;9.23;;;;;;;8.33;100.00;101223.22;5085006;28;20116;-64
2022/10/20 02:26:24;;;;;;;10.10;9.60;;;;;;;8.32;100.00;101225.03;5081959;28;20024;-63
2022/10/20 02:28:56;;;;;;;10.50;9.98;;;;;;;8.22;100.00;101226.00;5085884;28;20134;-63
2022/10/20 02:31:22;;;;;;;10.10;9.60;;;;;;;8.19;100.00;101227.13;5083625;28;20036;-63
2022/10/20 02:33:49;;;;;;;10.02;9.52;;;;;;;8.02;100.00;101228.69;5085555;28;20440;-63
2022/10/20 02:36:19;;;;;;;9.88;9.38;;;;;;;7.93;100.00;101223.41;5088199;28;20115;-62
2022/10/20 02:38:45;;;;;;;10.63;10.05;;;;;;;7.92;100.00;101246.34;5083294;28;20032;-63
2022/10/20 02:41:11;;;;;;;10.07;9.57;;;;;;;7.86;100.00;101236.38;5087571;28;20486;-64
2022/10/20 02:43:36;;;;;;;10.13;9.63;;;;;;;7.83;100.00;101231.34;5089072;28;20074;-63
2022/10/20 02:46:02;;;;;;;10.00;9.50;;;;;;;7.83;100.00;101230.50;5088594;28;20035;-63
2022/10/20 02:48:27;;;;;;;9.70;9.20;;;;;;;7.81;100.00;101245.66;5085734;28;20031;-63
2022/10/20 02:50:53;;;;;;;9.65;9.15;;;;;;;7.79;100.00;101247.63;5084223;28;20051;-63
2022/10/20 02:53:18;;;;;;;9.60;9.10;;;;;;;7.77;100.00;101253.03;5084622;28;20032;-64
2022/10/20 02:55:44;;;;;;;9.88;9.38;;;;;;;7.66;100.00;101248.72;5083206;28;20029;-64
2022/10/20 02:58:09;;;;;;;9.48;9.00;;;;;;;7.71;100.00;101254.44;5084575;28;20097;-64
2022/10/20 03:00:35;;;;;;;10.45;9.93;;;;;;;7.68;100.00;101245.94;5084239;28;20025;-63
2022/10/20 03:03:00;;;;;;;9.73;9.23;;;;;;;7.70;100.00;101260.66;5086092;28;20055;-63
2022/10/20 03:05:26;;;;;;;9.95;9.45;;;;;;;7.72;100.00;101260.53;5084593;28;20035;-63
2022/10/20 03:07:52;;;;;;;10.25;9.75;;;;;;;7.76;100.00;101251.34;5083061;28;20031;-63
2022/10/20 03:10:18;;;;;;;9.93;9.43;;;;;;;7.79;100.00;101266.94;5082182;28;20028;-64
2022/10/20 03:12:44;;;;;;;10.20;9.70;;;;;;;7.78;100.00;101259.13;5083501;28;20475;-63
2022/10/20 03:15:10;;;;;;;10.27;9.77;;;;;;;7.75;100.00;101260.25;5086704;28;20020;-63
2022/10/20 03:17:36;;;;;;;10.50;9.95;;;;;;;7.80;100.00;101267.78;5085463;28;20024;-63
2022/10/20 03:20:01;;;;;;;10.02;9.52;;;;;;;7.78;100.00;101269.69;5083240;28;20493;-63
2022/10/20 03:22:27;;;;;;;9.90;9.40;;;;;;;7.75;100.00;101252.34;5086187;28;20425;-63
2022/10/20 03:24:52;;;;;;;10.00;9.50;;;;;;;7.86;100.00;101261.91;5082889;28;20404;-63
2022/10/20 03:27:18;;;;;;;9.73;9.23;;;;;;;7.81;100.00;101259.72;5087317;28;20021;-63
2022/10/20 03:29:43;;;;;;;10.23;9.73;;;;;;;7.86;100.00;101259.28;5078480;28;20390;-63
2022/10/20 03:32:09;;;;;;;10.20;9.70;;;;;;;7.83;100.00;101265.69;5086283;28;20400;-63
2022/10/20 03:34:34;;;;;;;10.32;9.82;;;;;;;7.85;100.00;101260.25;5085533;28;20016;-62
2022/10/20 03:37:01;;;;;;;9.90;9.40;;;;;;;7.78;100.00;101269.69;5078171;28;20020;-63
2022/10/20 03:39:26;;;;;;;9.75;9.25;;;;;;;7.80;100.00;101263.31;5082773;28;20062;-63
2022/10/20 03:41:52;;;;;;;9.70;9.20;;;;;;;7.75;100.00;101269.00;5081619;28;20060;-62
2022/10/20 03:44:18;;;;;;;9.90;9.40;;;;;;;7.73;100.00;101273.59;5084717;28;20070;-62
2022/10/20 03:46:43;;;;;;;10.25;9.75;;;;;;;7.74;100.00;101279.72;5082351;28;20039;-63
2022/10/20 03:49:09;;;;;;;11.00;10.40;;;;;;;7.73;100.00;101284.16;5084880;28;20031;-63
2022/10/20 03:51:34;;;;;;;9.85;9.35;;;;;;;7.71;100.00;101274.69;5082594;28;20436;-63
2022/10/20 03:54:00;;;;;;;10.65;10.05;;;;;;;7.67;100.00;101278.59;5083444;28;20368;-63
2022/10/20 03:56:25;;;;;;;10.23;9.70;;;;;;;7.62;100.00;101273.72;5089576;28;20560;-63
2022/10/20 03:58:50;;;;;;;9.98;9.48;;;;;;;7.60;100.00;101282.75;5080742;28;20526;-61
2022/10/20 04:01:19;;;;;;;10.05;9.55;;;;;;;7.65;100.00;101291.94;5090178;28;20099;-63
2022/10/20 04:03:44;;;;;;;10.70;10.10;;;;;;;7.66;100.00;101301.53;5084651;28;20072;-62
2022/10/20 04:06:14;;;;;;;10.45;9.93;;;;;;;7.59;100.00;101297.78;5081207;28;20051;-63
2022/10/20 04:08:39;;;;;;;10.40;9.88;;;;;;;7.53;100.00;101298.31;5085059;28;20548;-62
2022/10/20 04:11:05;;;;;;;10.15;9.65;;;;;;;7.56;100.00;101298.03;5084911;28;20028;-63
2022/10/20 04:13:30;;;;;;;10.45;9.95;;;;;;;7.60;100.00;101293.31;5086131;28;20020;-63
2022/10/20 04:15:57;;;;;;;10.00;9.50;;;;;;;7.54;100.00;101293.88;5084051;28;20035;-63
2022/10/20 04:18:23;;;;;;;10.15;9.65;;;;;;;7.51;100.00;101294.97;5075124;28;20095;-64
2022/10/20 04:20:48;;;;;;;10.88;10.27;;;;;;;7.53;100.00;101290.38;5078774;28;20028;-63
2022/10/20 04:23:14;;;;;;;11.07;10.48;;;;;;;7.44;100.00;101297.31;5075818;28;20044;-63
2022/10/20 04:25:44;;;;;;;9.85;9.35;;;;;;;7.45;100.00;101299.00;5085868;28;20026;-63
2022/10/20 04:28:11;;;;;;;9.98;9.48;;;;;;;7.40;100.00;101303.81;5082305;28;20510;-63
2022/10/20 04:30:38;;;;;;;9.63;9.13;;;;;;;7.42;100.00;101303.72;5084076;28;20023;-63
2022/10/20 04:33:03;;;;;;;10.23;9.73;;;;;;;7.36;100.00;101307.72;5078147;28;20550;-64
2022/10/20 04:35:29;;;;;;;10.45;9.93;;;;;;;7.38;100.00;101311.06;5084642;28;20123;-63
2022/10/20 04:37:54;;;;;;;10.90;10.30;;;;;;;7.52;100.00;101304.56;5083214;28;20111;-63
2022/10/20 04:40:19;;;;;;;10.95;10.35;;;;;;;7.72;100.00;101310.72;5077855;28;20029;-63
2022/10/20 04:42:45;;;;;;;10.38;9.88;;;;;;;8.05;100.00;101304.19;5083586;28;20437;-63
2022/10/20 04:45:10;;;;;;;10.85;10.25;;;;;;;8.50;100.00;101309.75;5078147;28;20375;-62
2022/10/20 04:47:36;;;;;;;10.18;9.68;;;;;;;8.80;100.00;101314.00;5080868;28;20153;-62
2022/10/20 04:50:02;;;;;;;9.93;9.43;;;;;;;9.14;100.00;101310.81;5084042;28;20044;-63
2022/10/20 04:52:28;;;;;;;11.40;10.80;;;;;;;9.12;100.00;101310.13;5079028;28;20031;-63
2022/10/20 04:54:54;;;;;;;11.23;10.63;;;;;;;9.54;100.00;101323.69;5089824;28;20032;-63
2022/10/20 04:57:19;;;;;;;10.57;10.02;;;;;;;9.79;100.00;101327.47;5085430;28;20027;-63
2022/10/20 04:59:45;;;;;;;10.75;10.15;;;;;;;10.33;100.00;101333.63;5079771;28;20044;-63
2022/10/20 05:02:10;;;;;;;9.98;9.48;;;;;;;10.33;100.00;101340.75;5073381;28;20021;-63
2022/10/20 05:04:36;;;;;;;10.95;10.35;;;;;;;10.39;100.00;101340.13;5082306;28;20020;-64
2022/10/20 05:07:01;;;;;;;11.05;10.48;;;;;;;10.99;100.00;101340.22;5082327;28;20028;-63
2022/10/20 05:09:27;;;;;;;9.73;9.27;;;;;;;11.49;100.00;101342.94;5080310;28;20092;-63
2022/10/20 05:11:52;;;;;;;10.50;10.00;;;;;;;11.62;100.00;101358.44;5077465;28;20035;-63
2022/10/20 05:14:19;;;;;;;10.25;9.75;;;;;;;11.75;100.00;101356.16;5078426;28;20035;-62
2022/10/20 05:16:44;;;;;;;10.88;10.38;;;;;;;12.80;100.00;101354.59;5083289;28;20394;-62
2022/10/20 05:19:10;;;;;;;11.48;10.88;;;;;;;13.68;100.00;101369.66;5082437;28;20031;-63
2022/10/20 05:21:36;;;;;;;10.52;10.02;;;;;;;15.58;100.00;101374.84;5079727;28;20029;-64
2022/10/20 05:24:03;;;;;;;10.63;10.13;;;;;;;16.72;91.56;101383.88;5082433;28;20459;-62
2022/10/20 05:26:33;;;;;;;11.00;10.50;;;;;;;16.81;90.58;101388.06;5084196;28;20487;-60
2022/10/20 05:28:59;;;;;;;10.18;9.68;;;;;;;16.97;80.76;101378.94;5078663;28;20024;-62
2022/10/20 05:31:25;;;;;;;10.20;9.70;;;;;;;16.38;79.25;101382.75;5083260;28;20077;-63
2022/10/20 05:33:55;;;;;;;10.75;10.25;;;;;;;18.83;66.04;101393.81;5079219;28;20028;-62
2022/10/20 05:36:23;;;;;;;10.43;9.93;;;;;;;19.19;60.94;101396.03;5084302;28;20035;-62
2022/10/20 05:38:51;;;;;;;10.57;10.07;;;;;;;20.24;55.84;101402.03;5083872;28;20431;-63
2022/10/20 05:41:19;;;;;;;10.70;10.20;;;;;;;19.18;60.10;101405.16;5080192;28;20074;-63
2022/10/20 05:43:49;;;;;;;10.63;10.13;;;;;;;20.43;55.68;101411.88;5085409;28;20027;-63
2022/10/20 05:46:15;;;;;;;10.80;10.30;;;;;;;20.76;52.38;101418.91;5085898;28;20452;-63
2022/10/20 05:48:41;;;;;;;10.80;10.30;;;;;;;22.33;47.83;101417.34;5087853;28;20023;-63
2022/10/20 05:51:14;;;;;;;10.50;10.00;;;;;;;22.78;43.40;101414.97;5084813;28;20434;-63
2022/10/20 05:53:41;;;;;;;10.65;10.15;;;;;;;21.36;46.05;101417.31;5085626;28;20035;-64
2022/10/20 05:56:08;;;;;;;11.40;10.90;;;;;;;21.30;44.93;101418.22;5083598;28;20428;-63
2022/10/20 05:58:36;;;;;;;11.07;10.57;;;;;;;22.15;43.04;101425.50;5085884;28;20479;-65
2022/10/20 06:01:48;;;;;;;11.20;10.70;;;;;;;22.31;40.59;101414.88;5090528;28;20031;-64
2022/10/20 06:04:22;;;;;;;11.13;10.63;;;;;;;23.26;39.71;101422.03;5083712;28;20023;-66
2022/10/20 06:06:48;;;;;;;;;;;;;;;23.31;37.97;101424.06;5079296;28;20024;-66
2022/10/20 06:09:13;;;;;;;11.27;10.77;;;;;;;24.80;37.68;101432.06;5083270;28;19939;-66
2022/10/20 06:11:39;;;;;;;10.60;10.10;;;;;;;23.97;37.63;101426.25;5082683;28;20028;-67
2022/10/20 06:14:04;;;;;;;10.75;10.25;;;;;;;23.62;36.35;101428.25;5091010;28;20427;-67
2022/10/20 06:16:31;;;;;;;10.45;9.95;;;;;;;22.06;39.38;101427.69;5085899;28;20024;-67
2022/10/20 06:18:57;;;;;;;10.70;10.20;;;;;;;21.12;39.18;101437.03;5087231;28;20367;-67
2022/10/20 06:21:25;;;;;;;10.65;10.15;;;;;;;22.30;39.26;101424.03;5085787;28;20397;-68
2022/10/20 06:23:52;;;;;;;11.00;10.50;;;;;;;19.66;42.11;101443.34;5082544;28;20491;-68
2022/10/20 06:26:35;;;;;;;10.63;10.13;;;;;;;20.76;40.49;101448.56;5086198;28;20036;-67
2022/10/20 06:29:02;;;;;;;10.95;10.45;;;;;;;21.32;40.18;101450.38;5087332;28;20028;-69
2022/10/20 06:31:40;;;;;;;10.82;10.32;;;;;;;22.77;37.78;101448.50;5086200;28;20111;-68
2022/10/20 06:34:07;;;;;;;10.40;9.90;;;;;;;20.20;41.62;101443.91;5090522;28;20035;-66
2022/10/20 06:36:35;;;;;;;10.98;10.48;;;;;;;21.64;39.87;101460.00;5086221;28;20028;-67
2022/10/20 06:39:03;;;;;;;10.93;10.43;;;;;;;23.16;37.63;101460.53;5084582;28;20391;-66
2022/10/20 06:41:29;;;;;;;11.10;10.60;;;;;;;22.95;37.42;101469.25;5085376;28;20052;-67
2022/10/20 06:43:58;;;;;;;11.32;10.82;;;;;;;22.15;38.61;101456.06;5080574;28;20124;-66
2022/10/20 06:46:29;;;;;;;10.90;10.40;;;;;;;22.32;39.06;101467.06;5086817;28;20020;-67
2022/10/20 06:48:54;;;;;;;11.02;10.52;;;;;;;22.17;39.81;101462.06;5084385;28;20452;-66
2022/10/20 06:51:22;;;;;;;10.82;10.32;;;;;;;20.28;42.30;101455.28;5082711;28;20097;-65
2022/10/20 06:53:49;;;;;;;10.57;10.07;;;;;;;20.39;41.50;101467.25;5086361;28;20032;-67
2022/10/20 06:56:27;;;;;;;11.32;10.82;;;;;;;22.16;38.95;101465.81;5084287;28;20104;-66
2022/10/20 06:58:54;;;;;;;10.52;10.02;;;;;;;23.04;38.91;101475.13;5087299;28;20548;-68
2022/10/20 07:01:28;;;;;;;10.35;9.85;;;;;;;22.81;37.52;101484.00;5084648;28;20989;-67
2022/10/20 07:04:00;;;;;;;10.13;9.68;;;;;;;25.06;35.34;101495.78;5088671;28;20101;-68
2022/10/20 07:06:31;;;;;;;10.50;10.00;;;;;;;23.56;37.73;101494.19;5080107;28;20020;-67
2022/10/20 07:08:57;;;;;;;10.13;9.73;;;;;;;22.27;38.31;101489.38;5086887;28;20020;-67
2022/10/20 07:11:25;;;;;;;10.50;10.00;;;;;;;22.04;39.23;101486.53;5087541;28;20035;-66
2022/10/20 07:13:51;;;;;;;10.75;10.25;;;;;;;19.81;43.59;101486.97;5082984;28;20024;-66
2022/10/20 07:16:20;;;;;;;10.73;10.23;;;;;;;22.41;41.83;101490.03;5089084;28;20031;-67
2022/10/20 07:18:46;;;;;;;10.40;9.90;;;;;;;23.09;38.69;101496.91;5083313;28;20513;-68
2022/10/20 07:21:17;;;;;;;10.77;10.27;;;;;;;20.57;41.61;101483.56;5083525;28;20024;-68
2022/10/20 07:23:43;;;;;;;10.90;10.40;;;;;;;20.56;42.68;101495.34;5089580;28;20426;-66
2022/10/20 07:26:18;;;;;;;11.07;10.57;;;;;;;20.70;41.19;101485.31;5086459;28;20107;-68
2022/10/20 07:28:48;;;;;;;10.88;10.38;;;;;;;19.85;44.67;101472.06;5084851;28;20028;-67
2022/10/20 07:31:22;;;;;;;11.07;10.57;;;;;;;21.88;39.73;101487.13;5087146;28;20451;-66
2022/10/20 07:33:48;;;;;;;10.63;10.13;;;;;;;20.90;38.98;101482.47;5083483;28;20032;-67
2022/10/20 07:36:20;;;;;;;10.77;10.27;;;;;;;20.24;40.65;101475.63;5085114;28;20032;-67
2022/10/20 07:38:46;;;;;;;11.00;10.50;;;;;;;19.92;40.89;101472.03;5081728;28;20028;-67
2022/10/20 07:41:13;;;;;;;9.98;9.57;;;;;;;20.09;39.17;101469.69;5088043;28;20020;-66
2022/10/20 07:43:39;;;;;;;10.27;9.80;;;;;;;20.35;39.71;101474.13;5084680;28;20031;-67
2022/10/20 07:46:05;;;;;;;10.15;9.70;;;;;;;19.43;40.65;101464.50;5070496;28;20024;-67
2022/10/20 07:48:32;;;;;;;10.57;10.07;;;;;;;19.39;40.14;101469.47;5084609;28;20025;-66
2022/10/20 07:51:26;;;;;;;10.73;10.23;;;;;;;19.14;39.47;101476.53;5083915;28;20045;-66
2022/10/20 07:53:57;;;;;;;10.80;10.30;;;;;;;19.04;40.17;101475.09;5082820;28;20075;-66
2022/10/20 07:56:24;;;;;;;10.90;10.40;;;;;;;19.71;38.84;101467.75;5083382;28;20024;-68
2022/10/20 07:58:49;;;;;;;10.27;9.82;;;;;;;20.96;36.95;101478.91;5088861;28;20032;-69
2022/10/20 08:01:15;;;;;;;10.85;10.35;;;;;;;19.52;38.27;101457.84;5086764;28;20673;-67
2022/10/20 08:03:41;;;;;;;10.45;9.95;;;;;;;20.21;38.85;101467.97;5086894;28;20027;-67
2022/10/20 08:06:06;;;;;;;10.18;9.77;;;;;;;18.57;39.33;101456.41;5088207;28;20035;-67
2022/10/20 08:08:33;;;;;;;10.60;10.10;;;;;;;18.96;39.15;101439.53;5084971;28;20139;-66
2022/10/20 08:10:58;;;;;;;10.68;10.18;;;;;;;19.13;39.63;101453.38;5082210;28;20032;-65
2022/10/20 08:13:25;;;;;;;10.60;10.10;;;;;;;19.53;38.29;101457.63;5082117;28;20040;-67
2022/10/20 08:15:50;;;;;;;10.32;9.82;;;;;;;20.02;37.65;101466.19;5086926;28;20507;-67
2022/10/20 08:18:16;;;;;;;11.13;10.63;;;;;;;20.19;36.41;101475.41;5082796;28;20103;-68
2022/10/20 08:20:41;;;;;;;10.50;10.00;;;;;;;20.94;35.13;101475.59;5085948;28;20028;-67
2022/10/20 08:23:08;;;;;;;10.40;9.90;;;;;;;19.58;36.33;101471.31;5085474;28;20085;-67
2022/10/20 08:25:33;;;;;;;10.70;10.20;;;;;;;20.89;35.88;101491.63;5082356;28;20024;-66
2022/10/20 08:27:59;;;;;;;10.40;9.90;;;;;;;19.93;35.65;101479.06;5086927;28;20028;-66
2022/10/20 08:30:24;;;;;;;10.23;9.77;;;;;;;21.18;33.99;101476.63;5084011;28;20023;-66
2022/10/20 08:32:51;;;;;;;10.98;10.48;;;;;;;20.36;35.00;101492.75;5083201;28;20027;-68
2022/10/20 08:35:17;;;;;;;10.18;9.77;;;;;;;18.90;36.34;101484.19;5083664;28;20080;-68
2022/10/20 08:37:42;;;;;;;10.00;9.60;;;;;;;20.05;35.88;101490.00;5085133;28;20501;-67
2022/10/20 08:40:13;;;;;;;10.68;10.18;;;;;;;22.34;33.02;101492.00;5086250;28;20088;-67
2022/10/20 08:42:43;;;;;;;10.60;10.10;;;;;;;19.94;34.83;101487.97;5087003;28;20032;-66
2022/10/20 08:45:19;;;;;;;10.35;9.85;;;;;;;20.81;33.73;101508.88;5086225;28;20063;-67
2022/10/20 08:47:48;;;;;;;11.40;10.90;;;;;;;21.00;33.11;101504.38;5084534;28;20031;-66
2022/10/20 08:50:16;;;;;;;10.90;10.40;;;;;;;21.88;31.48;101501.47;5081342;28;20048;-67
2022/10/20 08:52:43;;;;;;;10.82;10.32;;;;;;;19.94;33.13;101504.97;5081855;28;20032;-68
2022/10/20 08:55:30;;;;;;;10.80;10.30;;;;;;;18.72;34.01;101508.13;5084942;28;20071;-67
2022/10/20 08:58:01;;;;;;;10.95;10.45;;;;;;;19.55;33.78;101509.41;5084194;28;20084;-66
2022/10/20 09:00:27;;;;;;;10.45;9.95;;;;;;;21.03;32.43;101506.66;5082986;28;20088;-67
2022/10/20 09:02:53;;;;;;;10.10;9.70;;;;;;;19.83;33.26;101503.78;5082239;28;20110;-66
2022/10/20 09:05:31;;;;;;;10.73;10.23;;;;;;;19.32;34.58;101501.78;5082299;28;20028;-67
2022/10/20 09:07:57;;;;;;;10.40;9.90;;;;;;;19.79;34.48;101505.22;5084538;28;20027;-66
2022/10/20 09:10:34;;;;;;;10.80;10.30;;;;;;;19.77;34.69;101501.91;5082440;28;20031;-67
2022/10/20 09:13:00;;;;;;;10.20;9.75;;;;;;;20.66;33.18;101503.81;5083576;28;20024;-68
2022/10/20 09:15:27;;;;;;;10.77;10.27;;;;;;;18.91;33.66;101512.72;5084946;28;20017;-66
2022/10/20 09:17:58;;;;;;;10.30;9.82;;;;;;;17.68;34.80;101486.84;5086290;28;20065;-67
2022/10/20 09:20:44;;;;;;;10.73;10.23;;;;;;;16.61;38.44;101518.34;5091372;28;20463;-67
2022/10/20 09:23:26;;;;;;;10.57;10.07;;;;;;;15.54;40.38;101502.75;5087422;28;20114;-67
2022/10/20 09:25:52;;;;;;;11.80;11.20;;;;;;;15.33;41.28;101513.31;5082344;28;20034;-66
2022/10/20 09:28:26;;;;;;;11.55;10.95;;;;;;;14.95;41.94;101501.81;5079032;28;20024;-65
2022/10/20 09:30:52;;;;;;;;;;;;;;;14.10;41.56;101502.63;5084123;28;20093;-66
2022/10/20 09:33:27;;;;;;;12.20;11.60;;;;;;;13.73;42.59;101505.94;5082172;28;20367;-66
2022/10/20 09:35:53;;;;;;;11.93;11.32;;;;;;;13.62;43.54;101509.81;5085243;28;20146;-66
2022/10/20 09:38:23;;;;;;;11.48;10.88;;;;;;;13.12;44.45;101508.19;5083421;28;20479;-66
2022/10/20 09:41:01;;;;;;;10.85;10.35;;;;;;;12.86;45.39;101524.34;5106211;27;20570;-65
2022/10/20 09:43:27;;;;;;;10.85;10.35;;;;;;;13.53;45.84;101506.34;5087726;28;20860;-66
2022/10/20 09:45:57;;;;;;;10.35;9.85;;;;;;;13.13;45.89;101520.50;5080448;28;20030;-67
2022/10/20 09:48:27;;;;;;;11.32;10.73;;;;;;;12.83;47.61;101505.19;5083827;28;20056;-67
2022/10/20 09:50:55;;;;;;;11.52;10.93;;;;;;;12.59;49.28;101506.00;5085108;28;20044;-68
2022/10/20 09:53:32;;;;;;;11.70;11.10;;;;;;;12.74;50.28;101509.66;5083080;28;20525;-67
2022/10/20 09:55:58;;;;;;;12.35;11.65;;;;;;;12.77;50.51;101513.81;5082218;28;20032;-67
2022/10/20 09:58:28;;;;;;;11.40;10.80;;;;;;;12.78;50.95;101510.16;5085444;28;20032;-70
2022/10/20 10:01:01;;;;;;;11.05;10.45;;;;;;;12.55;53.27;101516.13;5086663;28;20035;-69
2022/10/20 10:03:26;;;;;;;11.07;10.48;;;;;;;12.47;53.17;101515.28;5084769;28;20589;-67
2022/10/20 10:05:57;;;;;;;11.43;10.82;;;;;;;12.08;53.67;101506.00;5089588;28;20505;-67
2022/10/20 10:08:29;;;;;;;11.20;10.60;;;;;;;11.84;55.57;101513.91;5081304;28;20028;-67
2022/10/20 10:11:13;;;;;;;10.35;9.85;;;;;;;11.64;57.71;101513.25;5088257;28;20031;-67
2022/10/20 10:13:42;;;;;;;11.47;10.87;;;;;;;11.98;58.95;101510.63;5084199;28;20471;-66
2022/10/20 10:16:12;;;;;;;9.98;9.48;;;;;;;11.86;58.23;101502.09;5085080;28;20032;-66
2022/10/20 10:18:39;;;;;;;10.48;9.98;;;;;;;11.70;57.04;101499.34;5080864;28;20056;-67
2022/10/20 10:21:10;;;;;;;9.77;9.30;;;;;;;11.80;58.60;101510.69;5090126;28;20040;-68
2022/10/20 10:23:53;;;;;;;10.32;9.82;;;;;;;11.95;59.32;101502.97;5084861;28;20471;-66
2022/10/20 10:26:32;;;;;;;10.65;10.15;;;;;;;11.64;58.81;101494.66;5076973;28;20081;-67
2022/10/20 10:28:58;;;;;;;9.95;9.45;;;;;;;11.54;59.15;101496.59;5088665;28;20028;-66
2022/10/20 10:31:25;;;;;;;10.27;9.77;;;;;;;11.84;58.94;101506.75;5087124;28;20677;-66
2022/10/20 10:34:16;;;;;;;9.90;9.40;;;;;;;11.41;59.25;101512.13;5087696;28;20023;-65
2022/10/20 10:36:42;;;;;;;10.20;9.70;;;;;;;11.20;61.84;101507.16;5120653;27;20069;-65
2022/10/20 10:39:14;;;;;;;10.35;9.85;;;;;;;11.65;60.83;101504.28;5102354;27;20387;-66
2022/10/20 10:42:29;;;;;;;10.30;9.80;;;;;;;11.76;58.57;101498.69;5085619;28;20048;-67
2022/10/20 10:45:04;;;;;;;10.07;9.57;;;;;;;11.81;56.94;101509.72;5066600;28;20479;-69
2022/10/20 10:47:50;;;;;;;;;;;;;;;11.43;58.05;101492.34;5084368;28;20050;-67
2022/10/20 10:50:15;;;;;;;10.02;9.52;;;;;;;11.71;57.57;101503.66;5080897;28;20008;-65
2022/10/20 10:53:05;;;;;;;10.65;10.15;;;;;;;11.68;57.13;101506.63;5101107;28;20127;-67
2022/10/20 10:55:39;;;;;;;9.52;9.13;;;;;;;11.94;57.54;101511.94;5088243;28;20081;-68
2022/10/20 10:58:21;;;;;;;10.05;9.55;;;;;;;12.06;58.40;101520.47;5085727;28;20024;-66
2022/10/20 11:01:14;;;;;;;10.27;9.77;;;;;;;11.73;58.06;101506.97;5087428;28;20048;-67
2022/10/20 11:04:22;;;;;;;10.63;10.13;;;;;;;11.53;56.31;101509.03;5102110;28;20028;-68
2022/10/20 11:06:58;;;;;;;10.50;10.00;;;;;;;11.78;56.45;101509.19;5086784;28;20054;-68
2022/10/20 11:09:54;;;;;;;10.82;10.23;;;;;;;11.84;57.61;101509.41;5086155;28;20035;-68
2022/10/20 11:12:43;;;;;;;11.27;10.68;;;;;;;11.67;56.77;101506.78;5083465;28;20110;-68
2022/10/20 11:15:32;;;;;;;10.35;9.85;;;;;;;11.53;55.68;101498.41;5084553;28;20113;-68
2022/10/20 11:18:28;;;;;;;10.15;9.65;;;;;;;11.58;54.74;101488.13;5085919;28;20020;-67
2022/10/20 11:21:08;;;;;;;10.77;10.25;;;;;;;11.93;56.35;101496.16;5103976;28;20043;-64
2022/10/20 11:23:59;;;;;;;10.55;10.05;;;;;;;12.13;55.33;101502.88;5082893;28;20028;-69
2022/10/20 11:26:33;;;;;;;11.15;10.55;;;;;;;11.86;56.12;101496.78;5083500;28;20016;-68
2022/10/20 11:29:01;;;;;;;11.00;10.40;;;;;;;11.84;56.42;101501.44;5088134;28;20020;-67